Time;durP1;ratioP1;P1;durP2;ratioP2;P2;SDS_P1;SDS_P2;PMS_P1;PMS_P2;Temp;Humidity;BMP_temperature;BMP_pressure;BME280_temperature;BME280_humidity;BME280_pressure;Samples;Min_cycle;Max_cycle;Signal;HPM_P1;HPM_P2
2022/11/12 00:00:43;;;;;;;;;;;;;;;5.94;100.00;103071.13;5048296;28;19978;-76
2022/11/12 00:03:08;;;;;;;;;;;;;;;5.96;100.00;103069.38;5015621;28;19946;-76
2022/11/12 00:05:34;;;;;;;;;;;;;;;5.95;100.00;103059.72;5027159;28;19928;-76
2022/11/12 00:07:59;;;;;;;;;;;;;;;5.92;100.00;103062.31;5030018;28;19936;-76
2022/11/12 00:10:25;;;;;;;;;;;;;;;5.91;100.00;103065.81;5030317;28;19925;-76
2022/11/12 00:12:50;;;;;;;;;;;;;;;5.89;100.00;103057.03;5045852;28;19971;-77
2022/11/12 00:15:16;;;;;;;;;;;;;;;5.89;100.00;103065.78;5029653;28;19951;-76
2022/11/12 00:17:41;;;;;;;;;;;;;;;5.86;100.00;103063.13;5030268;28;20409;-76
2022/11/12 00:20:07;;;;;;;;;;;;;;;5.84;100.00;103064.88;5026084;28;19935;-76
2022/11/12 00:22:32;;;;;;;;;;;;;;;5.80;100.00;103063.06;5045598;28;19982;-76
2022/11/12 00:24:58;;;;;;;;;;;;;;;5.77;100.00;103069.19;5023314;28;19978;-76
2022/11/12 00:27:23;;;;;;;;;;;;;;;5.76;100.00;103067.41;5025888;28;19976;-76
2022/11/12 00:29:48;;;;;;;;;;;;;;;5.81;100.00;103075.34;5024540;28;19947;-76
2022/11/12 00:32:14;;;;;;;;;;;;;;;5.81;100.00;103072.72;5025861;28;20007;-75
2022/11/12 00:34:39;;;;;;;;;;;;;;;5.79;100.00;103075.34;5025441;28;20023;-76
2022/11/12 00:37:05;;;;;;;;;;;;;;;5.77;100.00;103073.56;5029293;28;20018;-76
2022/11/12 00:39:30;;;;;;;;;;;;;;;5.75;100.00;103073.53;5026188;28;20463;-76
2022/11/12 00:41:55;;;;;;;;;;;;;;;5.75;100.00;103075.28;5010381;28;19972;-76
2022/11/12 00:44:21;;;;;;;;;;;;;;;5.74;100.00;103079.69;5024632;28;19925;-76
2022/11/12 00:46:46;;;;;;;;;;;;;;;5.69;100.00;103084.00;5025234;28;19947;-76
2022/11/12 00:49:12;;;;;;;;;;;;;;;5.62;100.00;103095.31;5024710;28;20355;-76
2022/11/12 00:51:37;;;;;;;;;;;;;;;5.54;100.00;103089.94;5024752;28;19933;-76
2022/11/12 00:54:03;;;;;;;;;;;;;;;5.48;100.00;103095.13;5025587;28;19963;-76
2022/11/12 00:56:28;;;;;;;;;;;;;;;5.42;100.00;103098.56;5025454;28;20395;-76
2022/11/12 00:58:53;;;;;;;;;;;;;;;5.37;100.00;103095.00;5027108;28;20399;-76
2022/11/12 01:01:19;;;;;;;;;;;;;;;5.30;100.00;103079.16;5025043;28;19936;-76
2022/11/12 01:03:44;;;;;;;;;;;;;;;5.27;100.00;103079.13;5011054;28;20384;-76
2022/11/12 01:06:12;;;;;;;;;;;;;;;5.28;100.00;103085.25;5024927;28;19991;-76
2022/11/12 01:08:37;;;;;;;;;;;;;;;5.28;100.00;103090.50;5026989;28;19971;-76
2022/11/12 01:11:07;;;;;;;;;;;;;;;5.26;100.00;103087.88;5025057;28;20047;-75
2022/11/12 01:13:32;;;;;;;;;;;;;;;5.25;100.00;103086.13;5023651;28;19929;-76
2022/11/12 01:15:58;;;;;;;;;;;;;;;5.25;100.00;103086.13;5025477;28;19995;-76
2022/11/12 01:18:23;;;;;;;;;;;;;;;5.26;100.00;103092.22;5025386;28;19940;-75
2022/11/12 01:20:51;;;;;;;;;;;;;;;5.25;100.00;103088.75;5022240;28;19936;-76
2022/11/12 01:23:17;;;;;;;;;;;;;;;5.27;100.00;103086.13;5024905;28;20027;-75
2022/11/12 01:25:42;;;;;;;;;;;;;;;5.25;100.00;103093.09;5036264;28;20019;-76
2022/11/12 01:28:10;;;;;;;;;;;;;;;5.23;100.00;103086.97;5047988;28;20334;-76
2022/11/12 01:30:35;;;;;;;;;;;;;;;5.18;100.00;103086.00;5049060;28;19938;-76
2022/11/12 01:33:01;;;;;;;;;;;;;;;5.16;100.00;103091.22;5035620;28;19967;-76
2022/11/12 01:35:26;;;;;;;;;;;;;;;5.18;100.00;103086.00;5046293;28;19928;-76
2022/11/12 01:37:52;;;;;;;;;;;;;;;5.17;100.00;103087.75;5048971;28;20461;-76
2022/11/12 01:40:17;;;;;;;;;;;;;;;5.18;100.00;103083.38;5063038;28;20477;-76
2022/11/12 01:42:45;;;;;;;;;;;;;;;5.15;100.00;103076.34;5034878;28;19933;-76
2022/11/12 01:45:14;;;;;;;;;;;;;;;5.09;100.00;103068.38;5030454;28;20287;-76
2022/11/12 01:47:40;;;;;;;;;;;;;;;5.02;100.00;103084.03;5046077;28;19928;-75
2022/11/12 01:50:11;;;;;;;;;;;;;;;4.97;100.00;103085.72;5051180;28;19935;-75
2022/11/12 01:52:38;;;;;;;;;;;;;;;4.96;100.00;103089.22;5047817;28;19928;-76
2022/11/12 01:55:04;;;;;;;;;;;;;;;4.95;100.00;103081.34;5048672;28;19981;-76
2022/11/12 01:57:31;;;;;;;;;;;;;;;4.94;100.00;103085.69;5032529;28;20388;-76
2022/11/12 01:59:58;;;;;;;;;;;;;;;4.95;100.00;103078.72;5045693;28;19930;-76
2022/11/12 02:02:23;;;;;;;;;;;;;;;4.93;100.00;103078.69;5031976;28;19924;-75
2022/11/12 02:04:48;;;;;;;;;;;;;;;4.92;100.00;103070.78;5047558;28;19925;-76
2022/11/12 02:07:16;;;;;;;;;;;;;;;4.93;100.00;103077.78;5047327;28;20445;-76
2022/11/12 02:09:42;;;;;;;;;;;;;;;4.90;100.00;103078.63;5045422;28;20340;-76
2022/11/12 02:13:56;;;;;;;;;;;;;;;4.89;100.00;103074.22;5048189;28;20036;-75
2022/11/12 02:14:53;;;;;;;;;;;;;;;4.85;100.00;103075.06;5047785;28;19929;-75
2022/11/12 02:17:18;;;;;;;;;;;;;;;4.82;100.00;103075.91;5047962;28;20386;-76
2022/11/12 02:19:44;;;;;;;;;;;;;;;4.81;100.00;103083.75;5015890;28;19929;-77
2022/11/12 02:22:09;;;;;;;;;;;;;;;4.76;100.00;103081.94;5017475;28;19929;-75
2022/11/12 02:24:35;;;;;;;;;;;;;;;4.74;100.00;103082.78;5047327;28;19963;-76
2022/11/12 02:27:01;;;;;;;;;;;;;;;4.69;100.00;103076.59;5061316;28;19999;-76
2022/11/12 02:29:26;;;;;;;;;;;;;;;4.66;100.00;103084.38;5047771;28;19925;-76
2022/11/12 02:31:52;;;;;;;;;;;;;;;4.63;100.00;103087.84;5047195;28;20561;-76
2022/11/12 02:34:17;;;;;;;;;;;;;;;4.62;100.00;103081.72;5047092;28;19929;-76
2022/11/12 02:36:42;;;;;;;;;;;;;;;4.64;100.00;103086.13;5047516;28;19935;-76
2022/11/12 02:39:08;;;;;;;;;;;;;;;4.65;100.00;103093.13;5047071;28;19935;-76
2022/11/12 02:41:33;;;;;;;;;;;;;;;4.64;100.00;103092.25;5046841;28;19924;-76
2022/11/12 02:43:59;;;;;;;;;;;;;;;4.65;100.00;103099.28;5046957;28;19932;-76
2022/11/12 02:46:24;;;;;;;;;;;;;;;4.65;100.00;103099.28;5047401;28;19929;-76
2022/11/12 02:48:49;;;;;;;;;;;;;;;4.65;100.00;103086.16;5046395;28;19929;-76
2022/11/12 02:51:15;;;;;;;;;;;;;;;4.64;100.00;103087.00;5047483;28;19929;-77
2022/11/12 02:53:40;;;;;;;;;;;;;;;4.63;100.00;103085.22;5047666;28;19936;-76
2022/11/12 02:56:06;;;;;;;;;;;;;;;4.63;100.00;103085.22;5046679;28;19932;-76
2022/11/12 02:58:31;;;;;;;;;;;;;;;4.66;100.00;103081.75;5047060;28;19933;-76
2022/11/12 03:00:57;;;;;;;;;;;;;;;4.70;100.00;103075.72;5047264;28;19979;-76
2022/11/12 03:03:22;;;;;;;;;;;;;;;4.76;100.00;103081.94;5033480;28;19929;-76
2022/11/12 03:06:00;;;;;;;;;;;;;;;4.83;100.00;103090.78;5046265;28;20387;-76
2022/11/12 03:08:25;;;;;;;;;;;;;;;4.88;100.00;103091.75;5047110;28;20011;-76
2022/11/12 03:10:51;;;;;;;;;;;;;;;4.92;100.00;103097.91;5026768;28;20428;-76
2022/11/12 03:13:17;;;;;;;;;;;;;;;4.95;100.00;103107.59;5037973;28;19932;-76
2022/11/12 03:15:42;;;;;;;;;;;;;;;5.00;100.00;103104.16;5046879;28;20317;-76
2022/11/12 03:18:09;;;;;;;;;;;;;;;5.06;100.00;103097.25;5042778;28;20286;-76
2022/11/12 03:20:35;;;;;;;;;;;;;;;5.08;100.00;103085.91;5016208;28;19929;-75
2022/11/12 03:23:02;;;;;;;;;;;;;;;5.13;100.00;103081.56;5046279;28;20383;-76
2022/11/12 03:25:28;;;;;;;;;;;;;;;5.15;100.00;103077.25;5032586;28;20594;-76
2022/11/12 03:28:00;;;;;;;;;;;;;;;5.19;100.00;103091.28;5046216;28;20023;-75
2022/11/12 03:30:26;;;;;;;;;;;;;;;5.22;100.00;103096.56;5046232;28;20059;-76
2022/11/12 03:32:51;;;;;;;;;;;;;;;5.24;100.00;103094.84;5045918;28;19935;-75
2022/11/12 03:35:17;;;;;;;;;;;;;;;5.30;100.00;103079.16;5027048;28;19932;-76
2022/11/12 03:37:42;;;;;;;;;;;;;;;5.37;100.00;103080.13;5031945;28;19933;-76
2022/11/12 03:40:08;;;;;;;;;;;;;;;5.44;100.00;103078.44;5046252;28;20069;-76
2022/11/12 03:42:33;;;;;;;;;;;;;;;5.50;100.00;103088.16;5032554;28;19935;-76
2022/11/12 03:44:59;;;;;;;;;;;;;;;5.52;100.00;103094.31;5045913;28;20062;-76
2022/11/12 03:47:24;;;;;;;;;;;;;;;5.56;100.00;103085.63;5026732;28;19932;-76
2022/11/12 03:49:49;;;;;;;;;;;;;;;5.60;100.00;103070.75;5029586;28;19929;-76
2022/11/12 03:52:15;;;;;;;;;;;;;;;5.64;100.00;103060.28;5029891;28;20002;-76
2022/11/12 03:54:40;;;;;;;;;;;;;;;5.69;100.00;103060.34;5032541;28;19976;-76
2022/11/12 03:57:06;;;;;;;;;;;;;;;5.73;100.00;103072.66;5019764;28;19960;-76
2022/11/12 03:59:31;;;;;;;;;;;;;;;5.75;100.00;103089.31;5045625;28;19968;-76
2022/11/12 04:01:56;;;;;;;;;;;;;;;5.76;100.00;103088.44;5035919;28;19933;-76
2022/11/12 04:04:22;;;;;;;;;;;;;;;5.80;100.00;103092.88;5045410;28;19933;-76
2022/11/12 04:09:31;;;;;;;;;;;;;;;5.92;100.00;103067.56;5045639;28;20348;-75
2022/11/12 04:13:26;;;;;;;;;;;;;;;5.95;100.00;103073.72;5045317;28;19939;-77
2022/11/12 04:14:42;;;;;;;;;;;;;;;5.98;100.00;103089.56;5045532;28;19928;-76
2022/11/12 04:22:35;;;;;;;;;;;;;;;6.08;100.00;103064.25;5029944;28;20342;-75
2022/11/12 04:27:45;;;;;;;;;;;;;;;6.12;100.00;103078.31;5025914;28;19929;-76
2022/11/12 04:30:17;;;;;;;;;;;;;;;6.16;100.00;103082.72;5025760;28;19929;-76
2022/11/12 04:32:46;;;;;;;;;;;;;;;6.19;100.00;103084.50;5025244;28;20044;-76
2022/11/12 04:35:12;;;;;;;;;;;;;;;6.24;100.00;103085.44;5025873;28;19925;-76
2022/11/12 04:37:43;;;;;;;;;;;;;;;6.25;100.00;103064.41;5028003;28;20610;-76
2022/11/12 04:45:45;;;;;;;;;;;;;;;6.36;100.00;103068.84;5025666;28;19975;-76
2022/11/12 04:48:11;;;;;;;;;;;;;;;6.38;100.00;103065.38;5027792;28;19924;-76
2022/11/12 04:50:36;;;;;;;;;;;;;;;6.39;100.00;103061.88;5027835;28;20167;-76
2022/11/12 04:53:02;;;;;;;;;;;;;;;6.44;100.00;103061.94;5026239;28;20074;-76
2022/11/12 04:55:27;;;;;;;;;;;;;;;6.49;100.00;103069.84;5011905;28;20176;-76
2022/11/12 04:57:53;;;;;;;;;;;;;;;6.54;100.00;103075.16;5027042;28;19999;-76
2022/11/12 05:00:18;;;;;;;;;;;;;;;6.59;100.00;103076.06;5025938;28;20400;-75
2022/11/12 05:02:44;;;;;;;;;;;;;;;6.64;100.00;103072.59;5024406;28;20375;-76
2022/11/12 05:05:09;;;;;;;;;;;;;;;6.69;100.00;103067.34;5025767;28;21755;-76
2022/11/12 05:07:34;;;;;;;;;;;;;;;6.74;100.00;103077.91;5025432;28;19936;-76
2022/11/12 05:10:00;;;;;;;;;;;;;;;6.79;100.00;103089.34;5024982;28;19986;-76
2022/11/12 05:12:25;;;;;;;;;;;;;;;6.83;100.00;103082.34;5025249;28;19960;-76
2022/11/12 05:14:50;;;;;;;;;;;;;;;6.87;100.00;103086.78;5024114;28;19988;-76
2022/11/12 05:17:16;;;;;;;;;;;;;;;6.90;100.00;103090.31;5024665;28;20086;-76
2022/11/12 05:19:42;;;;;;;;;;;;;;;6.92;100.00;103087.69;5025426;28;19998;-76
2022/11/12 05:22:08;;;;;;;;;;;;;;;6.95;100.00;103094.72;5027364;28;20433;-75
2022/11/12 05:24:40;;;;;;;;;;;;;;;6.96;100.00;103092.09;5025029;28;19929;-76
2022/11/12 05:27:08;;;;;;;;;;;;;;;6.97;100.00;103087.72;5044686;28;20428;-75
2022/11/12 05:29:33;;;;;;;;;;;;;;;6.98;100.00;103084.19;5044878;28;19924;-75
2022/11/12 05:32:01;;;;;;;;;;;;;;;6.99;100.00;103088.59;5010023;28;20029;-75
2022/11/12 05:34:26;;;;;;;;;;;;;;;7.00;100.00;103090.34;5044712;28;19930;-75
2022/11/12 05:36:51;;;;;;;;;;;;;;;7.00;100.00;103087.72;5044636;28;19955;-75
2022/11/12 05:39:17;;;;;;;;;;;;;;;7.01;100.00;103094.75;5043492;28;19956;-75
2022/11/12 05:41:43;;;;;;;;;;;;;;;7.03;100.00;103087.75;5028531;28;19924;-75
2022/11/12 05:44:08;;;;;;;;;;;;;;;7.02;100.00;103086.84;5028593;28;20089;-75
2022/11/12 05:46:33;;;;;;;;;;;;;;;7.02;100.00;103089.50;5028348;28;20175;-75
2022/11/12 05:48:59;;;;;;;;;;;;;;;7.05;100.00;103091.28;5044184;28;20450;-75
2022/11/12 05:51:24;;;;;;;;;;;;;;;7.04;100.00;103079.84;5044732;28;19936;-75
2022/11/12 05:53:50;;;;;;;;;;;;;;;7.05;100.00;103093.91;5024504;28;20350;-75
2022/11/12 05:56:15;;;;;;;;;;;;;;;7.05;100.00;103105.34;5044209;28;19998;-75
2022/11/12 05:58:40;;;;;;;;;;;;;;;7.05;100.00;103099.16;5044458;28;20419;-75
2022/11/12 06:01:06;;;;;;;;;;;;;;;7.06;100.00;103093.03;5024819;28;19936;-75
2022/11/12 06:03:31;;;;;;;;;;;;;;;7.07;100.00;103094.78;5044189;28;19924;-75
2022/11/12 06:05:57;;;;;;;;;;;;;;;7.06;100.00;103093.03;5058575;28;19929;-75
2022/11/12 06:08:22;;;;;;;;;;;;;;;7.07;100.00;103094.78;5044071;28;19931;-75
2022/11/12 06:10:48;;;;;;;;;;;;;;;7.06;100.00;103087.75;5039809;28;19983;-75
2022/11/12 06:13:13;;;;;;;;;;;;;;;7.08;100.00;103096.53;5028769;28;19928;-75
2022/11/12 06:15:39;;;;;;;;;;;;;;;7.07;100.00;103095.69;5048081;28;19932;-75
2022/11/12 06:18:04;;;;;;;;;;;;;;;7.09;100.00;103093.06;5061623;28;19936;-75
2022/11/12 06:20:30;;;;;;;;;;;;;;;7.08;100.00;103091.28;5047938;28;20355;-75
2022/11/12 06:22:55;;;;;;;;;;;;;;;7.07;100.00;103100.94;5047333;28;19929;-75
2022/11/12 06:25:20;;;;;;;;;;;;;;;7.07;100.00;103106.22;5047172;28;20482;-75
2022/11/12 06:27:46;;;;;;;;;;;;;;;7.07;100.00;103106.22;5047796;28;20198;-75
2022/11/12 06:30:11;;;;;;;;;;;;;;;7.07;100.00;103100.03;5047197;28;19986;-75
2022/11/12 06:32:37;;;;;;;;;;;;;;;7.07;100.00;103106.22;5047131;28;19921;-75
2022/11/12 06:35:02;;;;;;;;;;;;;;;7.07;100.00;103102.69;5047157;28;19974;-75
2022/11/12 06:37:28;;;;;;;;;;;;;;;7.04;100.00;103102.69;5030088;28;20401;-75
2022/11/12 06:39:53;;;;;;;;;;;;;;;7.04;100.00;103102.69;5046636;28;20446;-75
2022/11/12 06:42:18;;;;;;;;;;;;;;;7.05;100.00;103099.16;5046294;28;20498;-75
2022/11/12 06:44:44;;;;;;;;;;;;;;;7.03;100.00;103103.56;5046802;28;20246;-75
2022/11/12 06:47:09;;;;;;;;;;;;;;;7.02;100.00;103086.84;5046664;28;19932;-75
2022/11/12 06:49:35;;;;;;;;;;;;;;;6.99;100.00;103091.22;5046745;28;19982;-75
2022/11/12 06:52:00;;;;;;;;;;;;;;;6.96;100.00;103102.63;5047136;28;20402;-75
2022/11/12 06:54:26;;;;;;;;;;;;;;;6.94;100.00;103099.09;5031534;28;19970;-75
2022/11/12 06:56:51;;;;;;;;;;;;;;;6.93;100.00;103098.22;5044517;28;19929;-75
2022/11/12 06:59:17;;;;;;;;;;;;;;;6.92;100.00;103101.72;5046939;28;19929;-74
2022/11/12 07:01:42;;;;;;;;;;;;;;;6.92;100.00;103100.88;5030925;28;19924;-74
2022/11/12 07:04:09;;;;;;;;;;;;;;;6.91;100.00;103099.06;5027132;28;19924;-75
2022/11/12 07:06:34;;;;;;;;;;;;;;;6.87;100.00;103095.53;5026883;28;19939;-75
2022/11/12 07:09:00;;;;;;;;;;;;;;;6.83;100.00;103101.69;5046607;28;19932;-75
2022/11/12 07:11:25;;;;;;;;;;;;;;;6.85;100.00;103114.84;5033008;28;19929;-76
2022/11/12 07:13:54;;;;;;;;;;;;;;;6.80;100.00;103109.53;5046527;28;19942;-75
2022/11/12 07:16:19;;;;;;;;;;;;;;;6.79;100.00;103105.16;5046846;28;20003;-76
2022/11/12 07:18:45;;;;;;;;;;;;;;;6.77;100.00;103110.41;5033017;28;20006;-75
2022/11/12 07:21:11;;;;;;;;;;;;;;;6.74;100.00;103110.41;5046632;28;19935;-76
2022/11/12 07:23:37;;;;;;;;;;;;;;;6.75;100.00;103119.19;5032733;28;19935;-76
2022/11/12 07:26:06;;;;;;;;;;;;;;;6.77;100.00;103130.59;5025575;28;20342;-76
2022/11/12 07:28:32;;;;;;;;;;;;;;;6.76;100.00;103139.38;5026722;28;19935;-76
2022/11/12 07:30:58;;;;;;;;;;;;;;;6.75;100.00;103129.72;5030391;28;19932;-75
2022/11/12 07:33:24;;;;;;;;;;;;;;;6.75;100.00;103132.34;5030211;28;20294;-77
2022/11/12 07:35:55;;;;;;;;;;;;;;;6.74;100.00;103134.09;5045964;28;19933;-75
2022/11/12 07:38:20;;;;;;;;;;;;;;;6.74;100.00;103135.81;5025840;28;19929;-75
2022/11/12 07:40:48;;;;;;;;;;;;;;;6.74;100.00;103146.34;5026873;28;20392;-76
2022/11/12 07:43:14;;;;;;;;;;;;;;;6.73;100.00;103155.13;5019314;28;19924;-76
2022/11/12 07:45:39;;;;;;;;;;;;;;;6.71;100.00;103162.16;5043439;28;19935;-76
2022/11/12 07:48:05;;;;;;;;;;;;;;;6.70;100.00;103141.97;5045917;28;20571;-76
2022/11/12 07:50:30;;;;;;;;;;;;;;;6.70;100.00;103141.97;5027096;28;20567;-76
2022/11/12 07:52:59;;;;;;;;;;;;;;;6.70;100.00;103134.06;5044862;28;19932;-76
2022/11/12 07:55:24;;;;;;;;;;;;;;;6.69;100.00;103143.69;5032069;28;20679;-76
2022/11/12 07:57:49;;;;;;;;;;;;;;;6.69;100.00;103148.09;5045402;28;19932;-76
2022/11/12 08:00:15;;;;;;;;;;;;;;;6.69;100.00;103151.59;5045433;28;20030;-76
2022/11/12 08:02:40;;;;;;;;;;;;;;;6.66;100.00;103157.72;5046313;28;20108;-76
2022/11/12 08:05:06;;;;;;;;;;;;;;;6.68;100.00;103154.19;5035812;28;19938;-76
2022/11/12 08:07:31;;;;;;;;;;;;;;;6.69;100.00;103156.00;5019268;28;20640;-76
2022/11/12 08:09:57;;;;;;;;;;;;;;;6.68;100.00;103146.31;5045397;28;19932;-75
2022/11/12 08:12:23;;;;;;;;;;;;;;;6.65;100.00;103160.34;5045182;28;19928;-76
2022/11/12 08:14:48;;;;;;;;;;;;;;;6.63;100.00;103151.53;5030857;28;19967;-76
2022/11/12 08:17:23;;;;;;;;;;;;;;;6.61;100.00;103158.56;5034997;28;19964;-76
2022/11/12 08:19:48;;;;;;;;;;;;;;;6.61;100.00;103156.81;5045290;28;20023;-76
2022/11/12 08:22:14;;;;;;;;;;;;;;;6.60;100.00;103151.53;5031139;28;20315;-76
2022/11/12 08:24:39;;;;;;;;;;;;;;;6.61;100.00;103158.56;5025514;28;20405;-75
2022/11/12 08:27:05;;;;;;;;;;;;;;;6.61;100.00;103167.34;5044725;28;19947;-75
2022/11/12 08:29:30;;;;;;;;;;;;;;;6.60;100.00;103162.91;5029068;28;19929;-75
2022/11/12 08:31:55;;;;;;;;;;;;;;;6.57;100.00;103157.66;5044937;28;20377;-75
2022/11/12 08:34:21;;;;;;;;;;;;;;;6.57;100.00;103162.00;5044575;28;19932;-75
2022/11/12 08:36:46;;;;;;;;;;;;;;;6.54;100.00;103162.00;5024982;28;19933;-75
2022/11/12 08:39:12;;;;;;;;;;;;;;;6.50;100.00;103166.34;5024714;28;19980;-75
2022/11/12 08:41:37;;;;;;;;;;;;;;;6.49;100.00;103175.13;5031333;28;19928;-75
2022/11/12 08:44:03;;;;;;;;;;;;;;;6.47;100.00;103176.84;5023736;28;19940;-76
2022/11/12 08:46:31;;;;;;;;;;;;;;;6.47;100.00;103179.47;5044930;28;19939;-76
2022/11/12 08:48:57;;;;;;;;;;;;;;;6.46;100.00;103164.56;5030607;28;19936;-76
2022/11/12 08:51:22;;;;;;;;;;;;;;;6.45;100.00;103165.44;5044459;28;19924;-76
2022/11/12 08:53:47;;;;;;;;;;;;;;;6.44;100.00;103158.41;5044239;28;19940;-76
2022/11/12 08:56:13;;;;;;;;;;;;;;;6.44;100.00;103159.31;5034692;28;19933;-76
2022/11/12 08:58:39;;;;;;;;;;;;;;;6.43;100.00;103168.03;5044189;28;19928;-76
2022/11/12 09:01:05;;;;;;;;;;;;;;;6.45;100.00;103162.78;5044644;28;19971;-76
2022/11/12 09:03:30;;;;;;;;;;;;;;;6.43;100.00;103159.28;5028782;28;19925;-76
2022/11/12 09:05:56;;;;;;;;;;;;;;;6.42;100.00;103161.00;5044680;28;19928;-76
2022/11/12 09:08:22;;;;;;;;;;;;;;;6.37;100.00;103157.44;5044780;28;19972;-76
2022/11/12 09:10:48;;;;;;;;;;;;;;;6.34;100.00;103155.69;5029143;28;20290;-76
2022/11/12 09:13:13;;;;;;;;;;;;;;;6.36;100.00;103150.44;5043840;28;19947;-76
2022/11/12 09:15:38;;;;;;;;;;;;;;;6.39;100.00;103150.47;5044450;28;20001;-76
2022/11/12 09:18:09;;;;;;;;;;;;;;;6.41;100.00;103167.16;5044137;28;19939;-76
2022/11/12 09:20:34;;;;;;;;;;;;;;;6.42;100.00;103175.94;5024487;28;20849;-76
2022/11/12 09:23:00;;;;;;;;;;;;;;;6.41;100.00;103176.78;5058823;28;19955;-76
2022/11/12 09:25:26;;;;;;;;;;;;;;;6.41;100.00;103182.94;5044742;28;19924;-76
2022/11/12 09:27:52;;;;;;;;;;;;;;;6.43;100.00;103175.06;5058124;28;21454;-76
2022/11/12 09:30:17;;;;;;;;;;;;;;;6.42;100.00;103168.03;5044594;28;19940;-76
2022/11/12 09:32:43;;;;;;;;;;;;;;;6.41;100.00;103156.63;5044936;28;19928;-76
2022/11/12 09:35:08;;;;;;;;;;;;;;;6.43;100.00;103164.53;5044171;28;19932;-76
2022/11/12 09:37:35;;;;;;;;;;;;;;;6.42;100.00;103161.00;5044613;28;19932;-76
2022/11/12 09:40:01;;;;;;;;;;;;;;;6.47;100.00;103175.09;5044253;28;19935;-76
2022/11/12 09:42:26;;;;;;;;;;;;;;;6.50;100.00;103171.63;5044757;28;19929;-76
2022/11/12 09:44:54;;;;;;;;;;;;;;;6.50;100.00;103172.47;5044344;28;19925;-76
2022/11/12 09:47:28;;;;;;;;;;;;;;;6.54;100.00;103180.44;5044858;28;20010;-75
2022/11/12 09:49:53;;;;;;;;;;;;;;;6.55;100.00;103185.72;5047694;28;20073;-76
2022/11/12 09:52:20;;;;;;;;;;;;;;;6.55;100.00;103177.81;5048224;28;20047;-76
2022/11/12 09:54:45;;;;;;;;;;;;;;;6.57;100.00;103183.97;5035399;28;19925;-75
2022/11/12 09:57:11;;;;;;;;;;;;;;;6.58;100.00;103172.56;5021842;28;19921;-76
2022/11/12 09:59:37;;;;;;;;;;;;;;;6.60;100.00;103172.59;5032372;28;19925;-76
2022/11/12 10:02:22;;;;;;;;;;;;;;;6.62;100.00;103165.56;5032557;28;19963;-76
2022/11/12 10:04:47;;;;;;;;;;;;;;;6.65;100.00;103177.00;5047688;28;20009;-76
2022/11/12 10:07:13;;;;;;;;;;;;;;;6.69;100.00;103175.28;5048179;28;20024;-76
2022/11/12 10:09:41;;;;;;;;;;;;;;;6.74;100.00;103185.84;5037168;28;19936;-76
2022/11/12 10:12:31;;;;;;;;;;;;;;;6.76;100.00;103182.38;5047779;28;19928;-76
2022/11/12 10:18:09;;;;;;;;;;;;;;;6.87;100.00;103176.31;5031270;28;19931;-76
2022/11/12 10:20:36;;;;;;;;;;;;;;;6.89;100.00;103171.94;5047110;28;20322;-76
2022/11/12 10:23:14;;;;;;;;;;;;;;;6.95;100.00;103178.97;5031662;28;19967;-76
2022/11/12 10:25:40;;;;;;;;;;;;;;;6.99;100.00;103175.50;5031540;28;20422;-76
2022/11/12 10:28:25;;;;;;;;;;;;;;;7.01;100.00;103185.19;5048649;28;19925;-76
2022/11/12 10:30:52;;;;;;;;;;;;;;;7.05;100.00;103180.81;5047345;28;20026;-76
2022/11/12 10:33:17;;;;;;;;;;;;;;;7.08;100.00;103175.56;5045147;28;20291;-76
2022/11/12 10:35:43;;;;;;;;;;;;;;;7.13;100.00;103179.13;5047049;28;19929;-76
2022/11/12 10:38:12;;;;;;;;;;;;;;;7.16;100.00;103179.16;5046967;28;19929;-76
2022/11/12 10:40:38;;;;;;;;;;;;;;;7.18;100.00;103174.75;5031444;28;20528;-76
2022/11/12 10:43:05;;;;;;;;;;;;;;;7.22;100.00;103170.41;5031365;28;20311;-76
2022/11/12 10:45:31;;;;;;;;;;;;;;;7.23;100.00;103161.63;5030606;28;19936;-75
2022/11/12 10:47:56;;;;;;;;;;;;;;;7.28;100.00;103164.28;4997270;28;20497;-76
2022/11/12 10:50:22;;;;;;;;;;;;;;;7.30;100.00;103165.19;5046932;28;19936;-76
2022/11/12 10:52:58;;;;;;;;;;;;;;;7.37;100.00;103168.72;5047441;28;19974;-75
2022/11/12 10:55:27;;;;;;;;;;;;;;;7.40;100.00;103171.38;5046925;28;19939;-76
2022/11/12 10:58:09;;;;;;;;;;;;;;;7.46;100.00;103160.84;5049590;28;19931;-76
2022/11/12 11:00:35;;;;;;;;;;;;;;;7.50;100.00;103161.75;5029843;28;19932;-76
2022/11/12 11:03:15;;;;;;;;;;;;;;;7.53;100.00;103156.50;5044256;28;19928;-76
2022/11/12 11:05:54;;;;;;;;;;;;;;;7.57;100.00;103150.38;5046339;28;20020;-76
2022/11/12 11:08:39;;;;;;;;;;;;;;;7.59;100.00;103151.25;5046738;28;20468;-76
2022/11/12 11:11:28;;;;;;;;;;;;;;;7.60;100.00;103156.53;5046622;28;19925;-76
2022/11/12 11:13:55;;;;;;;;;;;;;;;7.65;100.00;103150.38;5024627;28;19924;-75
2022/11/12 11:16:21;;;;;;;;;;;;;;;7.65;100.00;103156.56;5045421;28;20514;-75
2022/11/12 11:18:57;;;;;;;;;;;;;;;7.69;100.00;103147.75;5046614;28;19932;-75
2022/11/12 11:21:25;;;;;;;;;;;;;;;7.73;100.00;103144.28;5046569;28;20766;-76
2022/11/12 11:24:01;;;;;;;;;;;;;;;7.75;100.00;103147.78;5047121;28;19925;-76
2022/11/12 11:26:32;;;;;;;;;;;;;;;7.75;100.00;103152.19;5022599;28;19995;-76
2022/11/12 11:29:23;;;;;;;;;;;;;;;7.77;100.00;103152.19;5014131;28;19936;-76
2022/11/12 11:31:54;;;;;;;;;;;;;;;7.77;100.00;103158.34;5007815;28;19949;-75
2022/11/12 11:34:30;;;;;;;;;;;;;;;7.75;100.00;103155.69;5011157;28;19929;-75
2022/11/12 11:36:55;;;;;;;;;;;;;;;7.74;100.00;103159.22;5009121;28;19979;-75
2022/11/12 11:39:26;;;;;;;;;;;;;;;7.72;100.00;103142.50;5008751;28;19929;-76
2022/11/12 11:42:12;;;;;;;;;;;;;;;7.73;100.00;103146.91;5011329;28;19929;-76
2022/11/12 11:44:37;;;;;;;;;;;;;;;7.78;100.00;103153.97;5009015;28;19928;-75
2022/11/12 11:47:02;;;;;;;;;;;;;;;7.82;100.00;103153.09;5008781;28;19932;-75
2022/11/12 11:49:53;;;;;;;;;;;;;;;;;;;;;
2022/11/12 11:53:09;;;;;;;;;;;;;;;7.83;100.00;103165.38;5012299;28;20296;-79
2022/11/12 11:55:33;;;;;;;;;;;;;;;7.85;100.00;103159.25;5008260;28;20357;-77
2022/11/12 11:58:08;;;;;;;;;;;;;;;7.88;100.00;103156.63;5010394;28;20463;-76
2022/11/12 12:00:36;;;;;;;;;;;;;;;7.93;100.00;103150.47;5010714;28;19999;-76
2022/11/12 12:03:33;;;;;;;;;;;;;;;7.94;100.00;103144.31;5008499;28;19930;-76
2022/11/12 12:06:18;;;;;;;;;;;;;;;7.95;100.00;103144.31;4972266;28;20394;-76
2022/11/12 12:08:46;;;;;;;;;;;;;;;7.99;100.00;103150.50;4970683;28;19929;-76
2022/11/12 12:11:17;;;;;;;;;;;;;;;8.01;100.00;103154.91;5007387;28;19959;-76
2022/11/12 12:13:43;;;;;;;;;;;;;;;8.07;100.00;103146.09;5009434;28;20005;-76
2022/11/12 12:16:13;;;;;;;;;;;;;;;8.10;100.00;103150.50;5008615;28;20028;-76
2022/11/12 12:18:52;;;;;;;;;;;;;;;8.12;100.00;103146.13;5012235;28;19925;-76
2022/11/12 12:21:18;;;;;;;;;;;;;;;8.14;100.00;103140.00;5009655;28;19928;-76
2022/11/12 12:23:44;;;;;;;;;;;;;;;8.17;100.00;103131.16;4996652;28;20019;-76
2022/11/12 12:26:28;;;;;;;;;;;;;;;8.21;100.00;103126.78;5012287;28;19982;-77
2022/11/12 12:29:13;;;;;;;;;;;;;;;8.23;100.00;103117.97;5045145;28;19972;-76
2022/11/12 12:31:39;;;;;;;;;;;;;;;8.25;100.00;103131.19;5042107;28;20407;-76
2022/11/12 12:34:05;;;;;;;;;;;;;;;8.26;100.00;103119.75;5030859;28;19929;-76
2022/11/12 12:36:33;;;;;;;;;;;;;;;8.27;100.00;103130.31;5045335;28;19924;-76
2022/11/12 12:39:01;;;;;;;;;;;;;;;8.29;100.00;103114.50;5028819;28;19935;-76
2022/11/12 12:41:31;;;;;;;;;;;;;;;8.34;100.00;103119.75;5030999;28;20950;-76
2022/11/12 12:43:58;;;;;;;;;;;;;;;8.32;100.00;103109.19;5030854;28;19924;-76
2022/11/12 12:46:27;;;;;;;;;;;;;;;8.32;100.00;103103.06;5031246;28;19924;-76
2022/11/12 12:48:52;;;;;;;;;;;;;;;8.32;100.00;103103.91;5031050;28;19932;-76
2022/11/12 12:51:18;;;;;;;;;;;;;;;8.30;100.00;103108.31;5030793;28;19929;-76
2022/11/12 12:53:44;;;;;;;;;;;;;;;8.32;100.00;103108.34;5028960;28;19924;-76
2022/11/12 12:56:09;;;;;;;;;;;;;;;8.34;100.00;103109.22;5044296;28;19982;-76
2022/11/12 12:58:45;;;;;;;;;;;;;;;8.34;100.00;103106.56;5044148;28;20011;-76